Time;durP1;ratioP1;P1;durP2;ratioP2;P2;SDS_P1;SDS_P2;PMS_P1;PMS_P2;Temp;Humidity;BMP_temperature;BMP_pressure;BME280_temperature;BME280_humidity;BME280_pressure;Samples;Min_cycle;Max_cycle;Signal;HPM_P1;HPM_P2
2024/01/24 00:01:43;;;;;;;5.03;1.20;;;13.20;99.90;;;;;;5118943;28;20031;-59
2024/01/24 00:04:08;;;;;;;2.63;1.10;;;13.20;99.90;;;;;;5118997;28;20042;-60
2024/01/24 00:06:37;;;;;;;2.95;0.95;;;13.30;99.90;;;;;;5118813;28;20035;-57
2024/01/24 00:09:03;;;;;;;2.50;0.82;;;13.20;99.90;;;;;;5101221;28;20267;-58
2024/01/24 00:11:29;;;;;;;5.38;1.00;;;13.10;99.90;;;;;;5118732;28;20025;-58
2024/01/24 00:13:56;;;;;;;3.45;1.33;;;13.00;99.90;;;;;;5118744;28;20375;-58
2024/01/24 00:16:22;;;;;;;4.05;1.15;;;12.90;99.90;;;;;;5119043;28;20028;-59
2024/01/24 00:18:48;;;;;;;2.20;1.00;;;12.90;99.90;;;;;;5118810;28;20047;-59
2024/01/24 00:21:14;;;;;;;4.10;1.20;;;12.90;99.90;;;;;;5118700;28;20036;-58
2024/01/24 00:23:39;;;;;;;3.70;1.20;;;12.80;99.90;;;;;;5117900;28;20042;-58
2024/01/24 00:26:05;;;;;;;3.88;1.40;;;12.90;99.90;;;;;;5118550;28;20126;-65
2024/01/24 00:28:32;;;;;;;4.00;1.08;;;12.90;99.90;;;;;;5117556;28;20031;-58
2024/01/24 00:30:58;;;;;;;2.47;1.30;;;12.90;99.90;;;;;;5118375;28;20395;-57
2024/01/24 00:33:27;;;;;;;3.17;1.08;;;12.90;99.90;;;;;;5118229;28;20031;-59
2024/01/24 00:35:53;;;;;;;4.00;1.30;;;12.90;99.90;;;;;;5118054;28;20040;-58
2024/01/24 00:38:18;;;;;;;2.78;1.10;;;12.90;99.90;;;;;;5117977;28;20418;-58
2024/01/24 00:40:44;;;;;;;2.03;1.30;;;12.90;99.90;;;;;;5100310;28;20028;-60
2024/01/24 00:43:10;;;;;;;2.15;1.00;;;12.90;99.90;;;;;;5118265;28;20046;-59
2024/01/24 00:45:36;;;;;;;2.65;1.25;;;12.90;99.90;;;;;;5118073;28;20034;-58
2024/01/24 00:48:01;;;;;;;4.05;1.05;;;12.80;99.90;;;;;;5118061;28;20097;-59
2024/01/24 00:50:28;;;;;;;2.58;1.48;;;12.70;99.90;;;;;;5118169;28;20028;-59
2024/01/24 00:52:55;;;;;;;3.00;1.17;;;12.60;99.90;;;;;;5100518;28;20049;-60
2024/01/24 00:55:22;;;;;;;1.85;1.27;;;12.60;99.90;;;;;;5118082;28;20405;-59
2024/01/24 00:57:48;;;;;;;2.20;1.20;;;12.60;99.90;;;;;;5100395;28;20076;-60
2024/01/24 01:00:14;;;;;;;1.70;1.30;;;12.50;99.90;;;;;;5118173;28;20032;-59
2024/01/24 01:02:40;;;;;;;2.65;1.30;;;12.50;99.90;;;;;;5117809;28;20042;-62
2024/01/24 01:05:06;;;;;;;1.45;1.20;;;12.40;99.90;;;;;;5117912;28;20049;-58
2024/01/24 01:07:32;;;;;;;2.50;1.45;;;12.40;99.90;;;;;;5117668;28;20115;-59
2024/01/24 01:09:58;;;;;;;2.08;1.33;;;12.40;99.90;;;;;;5099991;28;20039;-58
2024/01/24 01:12:24;;;;;;;4.03;1.40;;;12.30;99.90;;;;;;5099999;28;20160;-61
2024/01/24 01:14:50;;;;;;;2.53;1.50;;;12.30;99.90;;;;;;5117698;28;20031;-59
2024/01/24 01:17:15;;;;;;;1.60;1.38;;;12.30;99.90;;;;;;5100171;28;20043;-59
2024/01/24 01:19:41;;;;;;;2.92;1.50;;;12.30;99.90;;;;;;5117614;28;20114;-59
2024/01/24 01:22:07;;;;;;;3.90;1.58;;;12.30;99.90;;;;;;5117492;28;20028;-58
2024/01/24 01:24:33;;;;;;;3.33;1.65;;;12.20;99.90;;;;;;5117473;28;20043;-58
2024/01/24 01:26:59;;;;;;;2.53;1.65;;;12.20;99.90;;;;;;5100098;28;20028;-59
2024/01/24 01:29:24;;;;;;;1.90;1.45;;;12.20;99.90;;;;;;5117428;28;20027;-57
2024/01/24 01:31:50;;;;;;;1.67;1.25;;;12.20;99.90;;;;;;5117464;28;20024;-58
2024/01/24 01:34:16;;;;;;;3.25;1.60;;;12.20;99.90;;;;;;5117204;28;20023;-57
2024/01/24 01:36:42;;;;;;;3.35;1.55;;;12.20;99.90;;;;;;5117220;28;20043;-57
2024/01/24 01:39:08;;;;;;;1.45;1.25;;;12.20;99.90;;;;;;5117021;28;20386;-57
2024/01/24 01:41:36;;;;;;;3.00;1.30;;;12.20;99.90;;;;;;5117205;28;20043;-57
2024/01/24 01:44:03;;;;;;;1.63;1.48;;;12.20;99.90;;;;;;5117198;28;20035;-57
2024/01/24 01:46:29;;;;;;;1.83;1.55;;;12.20;99.90;;;;;;5117167;28;20123;-58
2024/01/24 01:48:57;;;;;;;1.38;1.27;;;12.30;99.90;;;;;;5117013;28;20108;-57
2024/01/24 01:51:23;;;;;;;2.03;1.38;;;12.20;99.90;;;;;;5117083;28;20024;-60
2024/01/24 01:53:49;;;;;;;1.48;1.38;;;12.20;99.90;;;;;;5117128;28;20038;-58
2024/01/24 01:56:21;;;;;;;1.35;1.25;;;12.20;99.90;;;;;;5117075;28;20015;-58
2024/01/24 01:58:48;;;;;;;2.92;1.30;;;12.20;99.90;;;;;;5117036;28;20070;-60
2024/01/24 02:01:15;;;;;;;1.40;1.30;;;12.30;99.90;;;;;;5117057;28;20118;-57
2024/01/24 02:03:46;;;;;;;1.38;1.23;;;12.30;99.90;;;;;;5116910;28;20192;-57
2024/01/24 02:06:12;;;;;;;2.13;1.40;;;12.30;99.90;;;;;;5117052;28;20069;-59
2024/01/24 02:08:39;;;;;;;1.40;1.30;;;12.30;99.90;;;;;;5116977;28;20031;-58
2024/01/24 02:11:06;;;;;;;1.77;1.10;;;12.40;99.90;;;;;;5116982;28;20043;-56
2024/01/24 02:13:32;;;;;;;1.27;1.17;;;12.30;99.90;;;;;;5117073;28;20024;-56
2024/01/24 02:15:59;;;;;;;1.10;1.00;;;12.40;99.90;;;;;;5116978;28;20020;-57
2024/01/24 02:18:24;;;;;;;1.02;0.90;;;12.30;99.90;;;;;;5116986;28;20034;-56
2024/01/24 02:20:51;;;;;;;1.30;0.90;;;12.30;99.90;;;;;;5082763;28;20394;-57
2024/01/24 02:23:18;;;;;;;1.02;0.90;;;12.30;99.90;;;;;;5116866;28;20100;-56
2024/01/24 02:25:44;;;;;;;1.80;0.98;;;12.40;99.90;;;;;;5133416;28;20035;-57
2024/01/24 02:28:10;;;;;;;1.13;0.75;;;12.40;99.90;;;;;;5116842;28;20046;-56
2024/01/24 02:30:36;;;;;;;0.80;0.73;;;12.40;99.90;;;;;;5116817;28;20059;-58
2024/01/24 02:33:02;;;;;;;0.77;0.70;;;12.50;99.90;;;;;;5116822;28;20027;-56
2024/01/24 02:35:28;;;;;;;0.70;0.60;;;12.50;99.90;;;;;;5116857;28;20096;-58
2024/01/24 02:37:54;;;;;;;0.70;0.60;;;12.50;99.90;;;;;;5116640;28;20048;-59
2024/01/24 02:40:20;;;;;;;0.80;0.50;;;12.60;99.90;;;;;;5116876;28;20035;-59
2024/01/24 02:42:46;;;;;;;0.60;0.60;;;12.60;99.90;;;;;;5116701;28;20031;-54
2024/01/24 02:45:11;;;;;;;0.40;0.40;;;12.60;99.90;;;;;;5116859;28;20034;-56
2024/01/24 02:47:37;;;;;;;0.50;0.50;;;12.60;99.90;;;;;;5120461;28;20104;-59
2024/01/24 02:50:04;;;;;;;0.90;0.50;;;12.60;99.90;;;;;;5120431;28;20028;-56
2024/01/24 02:52:30;;;;;;;1.17;0.65;;;12.70;99.90;;;;;;5120330;28;20375;-58
2024/01/24 02:54:56;;;;;;;0.73;0.47;;;12.60;99.90;;;;;;5120438;28;20106;-57
2024/01/24 02:57:22;;;;;;;0.95;0.40;;;12.60;99.90;;;;;;5120256;28;20119;-60
2024/01/24 02:59:48;;;;;;;1.98;0.50;;;12.60;99.90;;;;;;5085513;28;20418;-60
2024/01/24 03:02:14;;;;;;;1.30;0.50;;;12.50;99.90;;;;;;5102423;28;20059;-58
2024/01/24 03:04:39;;;;;;;2.28;0.40;;;12.50;99.90;;;;;;5120136;28;20391;-59
2024/01/24 03:07:05;;;;;;;2.45;0.68;;;12.50;99.90;;;;;;5102554;28;20092;-59
2024/01/24 03:09:31;;;;;;;2.53;0.40;;;12.60;99.90;;;;;;5085467;28;20042;-61
2024/01/24 03:11:57;;;;;;;0.85;0.50;;;12.50;99.90;;;;;;5102638;28;20099;-58
2024/01/24 03:14:24;;;;;;;2.40;0.55;;;12.60;99.90;;;;;;5102439;28;20111;-59
2024/01/24 03:16:50;;;;;;;5.75;0.63;;;12.60;99.90;;;;;;5068822;28;20028;-58
2024/01/24 03:19:16;;;;;;;5.90;0.75;;;12.50;99.90;;;;;;5119906;28;20043;-66
2024/01/24 03:21:43;;;;;;;4.78;0.80;;;12.50;99.90;;;;;;5119843;28;20464;-61
2024/01/24 03:24:08;;;;;;;3.70;0.40;;;12.60;99.90;;;;;;5119798;28;20290;-60
2024/01/24 03:26:34;;;;;;;3.47;0.60;;;12.60;99.90;;;;;;5119770;28;20122;-59
2024/01/24 03:29:00;;;;;;;3.45;0.80;;;12.60;99.90;;;;;;5101820;28;20391;-59
2024/01/24 03:31:26;;;;;;;4.00;0.80;;;12.60;99.90;;;;;;5102164;28;20099;-59
2024/01/24 03:33:51;;;;;;;3.47;0.80;;;12.70;99.90;;;;;;5119649;28;20031;-62
2024/01/24 03:36:17;;;;;;;5.63;0.90;;;12.70;99.90;;;;;;5119641;28;20276;-63
2024/01/24 03:38:43;;;;;;;8.00;1.20;;;12.80;99.90;;;;;;5119308;28;20060;-59
2024/01/24 03:41:09;;;;;;;8.80;1.33;;;12.80;99.90;;;;;;5119372;28;20461;-60
2024/01/24 03:43:39;;;;;;;6.05;1.45;;;12.90;99.90;;;;;;5119414;28;20306;-67
2024/01/24 03:46:05;;;;;;;4.82;0.98;;;12.90;99.90;;;;;;5119599;28;20031;-60
2024/01/24 03:48:31;;;;;;;8.77;1.63;;;13.00;99.90;;;;;;5119214;28;20301;-58
2024/01/24 03:50:57;;;;;;;7.43;1.35;;;13.00;99.90;;;;;;5119244;28;20110;-60
2024/01/24 03:53:23;;;;;;;9.98;1.77;;;13.00;99.90;;;;;;5101544;28;20387;-62
2024/01/24 03:55:49;;;;;;;11.48;1.83;;;13.00;99.90;;;;;;5119427;28;20063;-60
2024/01/24 03:58:14;;;;;;;9.45;1.60;;;13.00;99.90;;;;;;5118996;28;20113;-65
2024/01/24 04:00:40;;;;;;;8.98;1.83;;;13.00;99.90;;;;;;5101493;28;20036;-65
2024/01/24 04:03:06;;;;;;;13.05;2.00;;;13.00;99.90;;;;;;5118952;28;20446;-63
2024/01/24 04:05:35;;;;;;;7.97;1.85;;;13.10;99.90;;;;;;5119029;28;20084;-59
2024/01/24 04:08:00;;;;;;;9.50;1.65;;;13.00;99.90;;;;;;5118774;28;20027;-61
2024/01/24 04:10:26;;;;;;;13.43;1.98;;;13.00;99.90;;;;;;5101122;28;20024;-60
2024/01/24 04:12:52;;;;;;;9.38;2.00;;;13.10;99.90;;;;;;5118722;28;20035;-59
2024/01/24 04:15:18;;;;;;;13.05;2.22;;;13.00;99.90;;;;;;5118898;28;20050;-64
2024/01/24 04:17:43;;;;;;;14.40;2.53;;;13.10;99.90;;;;;;5101038;28;20108;-60
2024/01/24 04:20:09;;;;;;;14.38;2.22;;;13.00;99.90;;;;;;5118740;28;20023;-64
2024/01/24 04:22:35;;;;;;;15.25;2.78;;;13.00;99.90;;;;;;5118557;28;20066;-64
2024/01/24 04:25:01;;;;;;;13.35;2.42;;;13.00;99.90;;;;;;5118587;28;20065;-61
2024/01/24 04:27:27;;;;;;;15.55;2.53;;;13.10;99.90;;;;;;5118442;28;20072;-63
2024/01/24 04:29:53;;;;;;;19.80;2.58;;;13.00;99.90;;;;;;5118678;28;20063;-61
2024/01/24 04:32:19;;;;;;;13.77;2.22;;;13.00;99.90;;;;;;5100932;28;20314;-62
2024/01/24 04:34:45;;;;;;;14.63;2.35;;;13.00;99.90;;;;;;5118508;28;20042;-65
2024/01/24 04:37:11;;;;;;;19.98;2.88;;;13.00;99.90;;;;;;5118596;28;20020;-59
2024/01/24 04:39:37;;;;;;;23.08;3.20;;;13.00;99.90;;;;;;5118201;28;20055;-59
2024/01/24 04:42:03;;;;;;;17.80;3.30;;;13.00;99.90;;;;;;5118286;28;20394;-63
2024/01/24 04:44:30;;;;;;;13.18;1.98;;;13.00;99.90;;;;;;5100548;28;20345;-63
2024/01/24 04:46:56;;;;;;;7.80;2.15;;;13.10;99.90;;;;;;5100955;28;20107;-60
2024/01/24 04:49:22;;;;;;;19.35;3.03;;;13.00;99.90;;;;;;5117527;28;20092;-64
2024/01/24 04:51:51;;;;;;;23.13;2.97;;;13.00;99.90;;;;;;5118076;28;20031;-64
2024/01/24 04:54:16;;;;;;;17.92;2.33;;;13.00;99.90;;;;;;5100230;28;20108;-64
2024/01/24 04:56:46;;;;;;;20.77;2.78;;;13.00;99.90;;;;;;5100434;28;20036;-61
2024/01/24 04:59:12;;;;;;;18.05;3.28;;;13.10;99.90;;;;;;5117965;28;20028;-59
2024/01/24 05:01:38;;;;;;;19.13;2.95;;;13.00;99.90;;;;;;5117885;28;20093;-66
2024/01/24 05:04:04;;;;;;;19.38;3.30;;;12.90;99.90;;;;;;5100331;28;20031;-62
2024/01/24 05:06:30;;;;;;;29.38;3.70;;;12.90;99.90;;;;;;5100358;28;20032;-61
2024/01/24 05:08:56;;;;;;;18.48;3.70;;;12.90;99.90;;;;;;5100036;28;20059;-61
2024/01/24 05:11:22;;;;;;;14.88;2.90;;;12.80;99.90;;;;;;5100217;28;20096;-59
2024/01/24 05:13:48;;;;;;;23.40;3.50;;;12.80;99.90;;;;;;5117669;28;20047;-64
2024/01/24 05:16:15;;;;;;;18.02;3.28;;;12.90;99.90;;;;;;5117673;28;20074;-60
2024/01/24 05:18:41;;;;;;;25.83;3.80;;;12.80;99.90;;;;;;5117604;28;20173;-58
2024/01/24 05:21:06;;;;;;;16.90;3.53;;;12.70;99.90;;;;;;5117639;28;20400;-57
2024/01/24 05:23:32;;;;;;;28.67;4.13;;;12.70;99.90;;;;;;5117460;28;20028;-60
2024/01/24 05:25:58;;;;;;;25.98;4.05;;;12.70;99.90;;;;;;5117997;28;20036;-60
2024/01/24 05:28:24;;;;;;;24.95;3.65;;;12.70;99.90;;;;;;5100054;28;20027;-58
2024/01/24 05:30:50;;;;;;;23.58;3.22;;;12.70;99.90;;;;;;5117537;28;20032;-64
2024/01/24 05:33:16;;;;;;;25.88;4.13;;;12.60;99.90;;;;;;5117541;28;20398;-64
2024/01/24 05:35:42;;;;;;;20.27;3.80;;;12.70;99.90;;;;;;5117455;28;20067;-61
2024/01/24 05:38:07;;;;;;;23.35;3.70;;;12.80;99.90;;;;;;5117208;28;20310;-62
2024/01/24 05:40:33;;;;;;;25.40;4.47;;;12.70;99.90;;;;;;5117412;28;20092;-66
2024/01/24 05:43:01;;;;;;;25.35;4.10;;;12.70;99.90;;;;;;5117472;28;20085;-60
2024/01/24 05:45:28;;;;;;;28.27;4.70;;;12.70;99.90;;;;;;5117389;28;20032;-67
2024/01/24 05:47:54;;;;;;;21.58;3.97;;;12.60;99.90;;;;;;5117210;28;20185;-61
2024/01/24 05:50:19;;;;;;;23.90;4.10;;;12.70;99.90;;;;;;5117311;28;20046;-63
2024/01/24 05:52:45;;;;;;;23.05;4.07;;;12.60;99.90;;;;;;5117287;28;20413;-67
2024/01/24 05:55:12;;;;;;;23.45;4.47;;;12.70;99.90;;;;;;5099713;28;20032;-63
2024/01/24 05:57:41;;;;;;;30.05;4.38;;;12.70;99.90;;;;;;5099570;28;20038;-62
2024/01/24 06:00:09;;;;;;;20.17;3.20;;;12.70;99.90;;;;;;5117242;28;20043;-65
2024/01/24 06:02:36;;;;;;;23.20;3.88;;;12.60;99.90;;;;;;5116984;28;20050;-64
2024/01/24 06:05:02;;;;;;;25.80;4.40;;;12.60;99.90;;;;;;5117213;28;20040;-65
2024/01/24 06:07:28;;;;;;;26.23;4.45;;;12.60;99.90;;;;;;5116810;28;20031;-63
2024/01/24 06:09:54;;;;;;;27.25;4.97;;;12.60;99.90;;;;;;5116988;28;20051;-61
2024/01/24 06:12:20;;;;;;;30.10;4.05;;;12.50;99.90;;;;;;5116728;28;20023;-66
2024/01/24 06:14:46;;;;;;;31.52;4.38;;;12.50;99.90;;;;;;5116939;28;20027;-62
2024/01/24 06:17:11;;;;;;;25.05;4.57;;;12.40;99.90;;;;;;5116680;28;20039;-64
2024/01/24 06:19:37;;;;;;;32.35;4.25;;;12.50;99.90;;;;;;5116859;28;20031;-61
2024/01/24 06:22:03;;;;;;;23.67;4.15;;;12.50;99.90;;;;;;5102300;28;20038;-58
2024/01/24 06:24:29;;;;;;;30.67;4.20;;;12.40;99.90;;;;;;5121043;28;20039;-63
2024/01/24 06:26:55;;;;;;;32.78;5.03;;;12.40;99.90;;;;;;5120790;28;20028;-64
2024/01/24 06:29:20;;;;;;;22.52;3.85;;;12.40;99.90;;;;;;5103041;28;20039;-64
2024/01/24 06:31:46;;;;;;;23.17;4.45;;;12.40;99.90;;;;;;5103139;28;20051;-64
2024/01/24 06:34:12;;;;;;;29.67;4.28;;;12.50;99.90;;;;;;5102321;28;20032;-66
2024/01/24 06:36:39;;;;;;;31.63;5.30;;;12.40;99.90;;;;;;5102734;28;20276;-64
2024/01/24 06:39:09;;;;;;;33.88;5.38;;;12.50;99.90;;;;;;5120279;28;20402;-62
2024/01/24 06:41:35;;;;;;;26.33;4.43;;;12.50;99.80;;;;;;5120493;28;20115;-58
2024/01/24 06:44:05;;;;;;;32.10;4.60;;;12.40;98.70;;;;;;5120409;28;20131;-63
2024/01/24 06:46:31;;;;;;;29.65;4.45;;;12.30;99.90;;;;;;5120499;28;20115;-62
2024/01/24 06:48:57;;;;;;;30.33;5.68;;;12.30;96.40;;;;;;5136823;27;20118;-65
2024/01/24 06:51:23;;;;;;;28.40;4.82;;;12.30;95.70;;;;;;5120514;28;20493;-62
2024/01/24 06:53:49;;;;;;;30.17;5.18;;;12.40;97.20;;;;;;5102664;28;20028;-63
2024/01/24 06:56:14;;;;;;;31.55;5.10;;;12.40;98.30;;;;;;5102684;28;20024;-66
2024/01/24 06:58:40;;;;;;;31.27;4.55;;;12.40;96.70;;;;;;5120307;28;20031;-65
2024/01/24 07:01:06;;;;;;;24.58;4.20;;;12.40;94.70;;;;;;5102446;28;20040;-63
2024/01/24 07:03:32;;;;;;;29.35;5.15;;;12.40;98.50;;;;;;5120045;28;20271;-63
2024/01/24 07:05:58;;;;;;;35.42;5.38;;;12.30;98.70;;;;;;5102619;28;20291;-64
2024/01/24 07:08:24;;;;;;;29.88;4.38;;;12.30;99.90;;;;;;5119892;28;20039;-60
2024/01/24 07:10:50;;;;;;;30.15;4.55;;;12.20;99.90;;;;;;5120042;28;20044;-66
2024/01/24 07:13:16;;;;;;;34.88;4.82;;;12.10;99.90;;;;;;5119931;28;20031;-59
2024/01/24 07:15:42;;;;;;;30.42;4.88;;;12.10;99.90;;;;;;5119995;28;20386;-61
2024/01/24 07:18:09;;;;;;;36.92;5.47;;;12.00;99.90;;;;;;5119884;28;20023;-62
2024/01/24 07:20:35;;;;;;;26.85;5.47;;;12.00;99.90;;;;;;5119904;28;20114;-60
2024/01/24 07:23:01;;;;;;;29.88;5.10;;;11.90;99.90;;;;;;5119845;28;20032;-61
2024/01/24 07:25:27;;;;;;;30.48;5.32;;;11.90;99.90;;;;;;5119624;28;20024;-59
2024/01/24 07:27:53;;;;;;;35.45;5.35;;;11.80;99.90;;;;;;5102238;28;20427;-60
2024/01/24 07:30:22;;;;;;;32.65;5.25;;;11.90;99.90;;;;;;5119650;28;20126;-59
2024/01/24 07:32:49;;;;;;;33.72;5.80;;;11.80;99.90;;;;;;5119204;28;20020;-61
2024/01/24 07:35:15;;;;;;;34.67;5.25;;;11.70;99.90;;;;;;5119632;28;20031;-59
2024/01/24 07:37:41;;;;;;;33.97;5.55;;;11.70;99.90;;;;;;5101521;28;20040;-62
2024/01/24 07:40:07;;;;;;;38.13;5.65;;;11.80;99.90;;;;;;5119705;28;20390;-59
2024/01/24 07:42:33;;;;;;;29.67;4.70;;;11.80;99.90;;;;;;5119416;28;20043;-58
2024/01/24 07:44:59;;;;;;;33.35;5.13;;;11.70;99.90;;;;;;5119359;28;20117;-60
2024/01/24 07:47:25;;;;;;;35.35;4.97;;;11.70;99.90;;;;;;5119270;28;20023;-62
2024/01/24 07:49:51;;;;;;;31.38;5.75;;;11.80;99.90;;;;;;5119214;28;20050;-61
2024/01/24 07:52:17;;;;;;;31.65;4.68;;;11.80;99.90;;;;;;5119367;28;20467;-60
2024/01/24 07:54:43;;;;;;;33.30;5.80;;;11.70;99.90;;;;;;5119171;28;20272;-58
2024/01/24 07:57:09;;;;;;;38.10;5.28;;;11.60;99.90;;;;;;5119253;28;20031;-65
2024/01/24 07:59:35;;;;;;;30.63;4.45;;;11.70;99.90;;;;;;5119368;28;20100;-59
2024/01/24 08:02:03;;;;;;;35.10;5.38;;;11.60;99.90;;;;;;5119308;28;20398;-59
2024/01/24 08:04:30;;;;;;;36.97;5.25;;;11.60;99.90;;;;;;5101340;28;20028;-64
2024/01/24 08:06:56;;;;;;;30.80;5.05;;;11.60;99.90;;;;;;5118959;28;20032;-66
2024/01/24 08:09:22;;;;;;;35.85;5.68;;;11.60;99.90;;;;;;5118817;28;20039;-60
2024/01/24 08:11:47;;;;;;;31.50;4.57;;;11.70;99.90;;;;;;5084174;28;20031;-59
2024/01/24 08:14:14;;;;;;;31.13;5.10;;;11.60;99.90;;;;;;5118728;28;20028;-60
2024/01/24 08:16:40;;;;;;;31.88;5.00;;;11.60;99.90;;;;;;5101005;28;20160;-58
2024/01/24 08:19:05;;;;;;;33.25;5.32;;;11.60;99.90;;;;;;5118702;28;20032;-59
2024/01/24 08:21:31;;;;;;;40.55;7.20;;;11.50;99.90;;;;;;5100949;28;20046;-65
2024/01/24 08:23:57;;;;;;;30.65;4.63;;;11.50;99.90;;;;;;5101067;28;20031;-58
2024/01/24 08:26:23;;;;;;;30.88;4.57;;;11.50;99.90;;;;;;5100819;28;20068;-59
2024/01/24 08:28:49;;;;;;;43.63;6.18;;;11.50;99.90;;;;;;5118485;28;20089;-61
2024/01/24 08:31:15;;;;;;;31.23;4.45;;;11.70;99.90;;;;;;5118506;28;20031;-65
2024/01/24 08:33:41;;;;;;;32.78;5.63;;;11.70;99.40;;;;;;5118410;28;20034;-60
2024/01/24 08:36:06;;;;;;;26.30;4.70;;;11.60;99.90;;;;;;5118400;28;20028;-60
2024/01/24 08:38:32;;;;;;;33.78;5.38;;;11.60;99.90;;;;;;5118181;28;20075;-57
2024/01/24 08:40:58;;;;;;;31.65;5.72;;;11.50;99.90;;;;;;5118262;28;20420;-60
2024/01/24 08:43:24;;;;;;;41.17;6.28;;;11.60;98.00;;;;;;5117646;28;20104;-62
2024/01/24 08:45:50;;;;;;;33.15;5.22;;;11.60;95.70;;;;;;5100717;28;20035;-60
2024/01/24 08:48:17;;;;;;;37.47;5.95;;;11.60;95.50;;;;;;5118057;28;20032;-61
2024/01/24 08:50:43;;;;;;;40.10;6.07;;;11.50;96.80;;;;;;5100359;28;20038;-62
2024/01/24 08:53:09;;;;;;;38.78;5.85;;;11.60;95.40;;;;;;5083462;28;20047;-67
2024/01/24 08:55:35;;;;;;;31.73;5.88;;;11.70;89.40;;;;;;5118059;28;20299;-62
2024/01/24 08:58:00;;;;;;;29.08;4.65;;;11.70;90.50;;;;;;5117980;28;20032;-64
2024/01/24 09:00:27;;;;;;;30.17;5.25;;;11.80;88.20;;;;;;5118027;28;20418;-62
2024/01/24 09:02:53;;;;;;;31.02;5.63;;;11.80;86.40;;;;;;5118054;28;20112;-58
2024/01/24 09:05:20;;;;;;;37.33;5.80;;;11.80;80.40;;;;;;5117762;28;20062;-58
2024/01/24 09:07:46;;;;;;;34.13;4.53;;;11.80;81.20;;;;;;5117690;28;20040;-62
2024/01/24 09:10:12;;;;;;;30.92;4.82;;;11.90;80.80;;;;;;5099968;28;20035;-59
2024/01/24 09:12:38;;;;;;;31.33;5.50;;;11.80;83.60;;;;;;5117623;28;20088;-59
2024/01/24 09:15:05;;;;;;;34.17;5.65;;;11.80;79.70;;;;;;5117676;28;20028;-62
2024/01/24 09:17:32;;;;;;;26.42;4.60;;;11.80;79.50;;;;;;5117659;28;20119;-61
2024/01/24 09:19:57;;;;;;;34.63;5.75;;;11.90;82.00;;;;;;5117637;28;20112;-61
2024/01/24 09:22:23;;;;;;;31.20;4.57;;;11.90;77.00;;;;;;5117538;28;20035;-60
2024/01/24 09:24:49;;;;;;;36.22;5.35;;;11.90;75.30;;;;;;5099896;28;20024;-60
2024/01/24 09:27:15;;;;;;;36.80;5.63;;;12.00;73.20;;;;;;5099751;28;20053;-61
2024/01/24 09:29:41;;;;;;;36.13;5.55;;;11.90;75.90;;;;;;5099865;28;20043;-59
2024/01/24 09:32:07;;;;;;;36.67;5.38;;;12.00;75.30;;;;;;5132155;27;20095;-59
2024/01/24 09:34:33;;;;;;;32.58;4.90;;;12.00;68.70;;;;;;5137830;27;20038;-60
2024/01/24 09:36:59;;;;;;;31.42;5.70;;;12.00;72.00;;;;;;5137866;27;20081;-62
2024/01/24 09:39:25;;;;;;;31.77;5.30;;;12.00;67.60;;;;;;5102973;27;20055;-60
2024/01/24 09:41:52;;;;;;;30.50;5.43;;;12.00;69.90;;;;;;5120030;28;20043;-63
2024/01/24 09:44:19;;;;;;;30.48;4.90;;;12.10;65.10;;;;;;5103239;28;20458;-61
2024/01/24 09:46:48;;;;;;;31.20;4.82;;;12.10;59.70;;;;;;5137790;28;20034;-62
2024/01/24 09:49:17;;;;;;;28.55;4.53;;;12.10;60.80;;;;;;5137758;28;20031;-59
2024/01/24 09:51:44;;;;;;;34.45;5.30;;;12.00;65.30;;;;;;5137860;28;20046;-59
2024/01/24 09:54:12;;;;;;;36.30;5.85;;;12.00;62.30;;;;;;5137750;27;20027;-59
2024/01/24 09:56:38;;;;;;;28.25;5.25;;;12.10;56.70;;;;;;5142007;27;20027;-62
2024/01/24 09:59:06;;;;;;;27.65;4.53;;;11.90;62.10;;;;;;5124118;27;20075;-59
2024/01/24 10:01:34;;;;;;;33.53;5.90;;;11.90;67.50;;;;;;5141941;27;20420;-66
2024/01/24 10:04:00;;;;;;;31.35;5.60;;;12.00;62.90;;;;;;5141813;27;20031;-63
2024/01/24 10:06:27;;;;;;;33.33;4.90;;;12.00;58.50;;;;;;5141842;27;20302;-58
2024/01/24 10:08:57;;;;;;;33.63;5.20;;;12.10;57.80;;;;;;5141636;27;20051;-58
2024/01/24 10:11:27;;;;;;;30.38;5.70;;;12.00;63.40;;;;;;5106946;27;20139;-59
2024/01/24 10:14:00;;;;;;;35.53;6.68;;;12.20;56.40;;;;;;5141708;27;20035;-65
2024/01/24 10:16:26;;;;;;;28.13;5.63;;;12.30;50.60;;;;;;5123827;27;20038;-59
2024/01/24 10:18:54;;;;;;;34.30;5.60;;;12.40;46.30;;;;;;5141902;27;20263;-59
2024/01/24 10:21:20;;;;;;;39.13;5.60;;;12.50;42.60;;;;;;5141628;27;20038;-67
2024/01/24 10:23:46;;;;;;;36.17;5.28;;;12.40;43.80;;;;;;5141699;27;20035;-60
2024/01/24 10:26:13;;;;;;;31.63;5.07;;;12.50;39.40;;;;;;5141736;27;20403;-61
2024/01/24 10:28:39;;;;;;;30.83;5.63;;;12.30;43.10;;;;;;5141412;27;20031;-59
2024/01/24 10:31:06;;;;;;;22.92;4.25;;;12.40;46.10;;;;;;5123511;27;20019;-65
2024/01/24 10:33:32;;;;;;;31.42;4.70;;;12.50;35.50;;;;;;5141396;27;20115;-61
2024/01/24 10:35:59;;;;;;;29.17;4.97;;;12.50;36.50;;;;;;5141556;27;20395;-60
2024/01/24 10:38:31;;;;;;;33.47;5.45;;;12.50;37.80;;;;;;5141058;27;20318;-60
2024/01/24 10:41:02;;;;;;;31.13;4.90;;;12.60;29.10;;;;;;5141434;27;20023;-59
2024/01/24 10:43:28;;;;;;;29.67;5.10;;;12.60;1.00;;;;;;5141153;27;20279;-59
2024/01/24 10:45:56;;;;;;;29.27;4.78;;;12.60;1.00;;;;;;5141046;27;20131;-59
2024/01/24 10:48:22;;;;;;;32.22;4.85;;;12.80;1.00;;;;;;5123147;27;20046;-58
2024/01/24 10:50:48;;;;;;;22.33;4.40;;;12.90;1.00;;;;;;5141145;27;20023;-67
2024/01/24 10:53:14;;;;;;;26.65;4.88;;;12.80;1.00;;;;;;5141096;27;20394;-60
2024/01/24 10:55:41;;;;;;;31.30;5.15;;;12.80;1.00;;;;;;5123118;27;20054;-58
2024/01/24 10:58:11;;;;;;;26.33;4.97;;;12.90;1.00;;;;;;5141017;27;20027;-64
2024/01/24 11:00:39;;;;;;;30.73;4.95;;;12.80;1.00;;;;;;5122819;27;20031;-61
2024/01/24 11:03:06;;;;;;;26.92;4.65;;;12.70;1.00;;;;;;5123157;27;20073;-66
2024/01/24 11:05:47;;;;;;;32.28;5.03;;;12.70;1.00;;;;;;5140768;27;20122;-61
2024/01/24 11:08:34;;;;;;;30.83;5.55;;;12.80;1.00;;;;;;5140097;27;20098;-59
2024/01/24 11:11:06;;;;;;;28.23;4.88;;;12.80;1.00;;;;;;5140657;27;20072;-66
2024/01/24 11:13:35;;;;;;;28.15;4.53;;;12.90;1.00;;;;;;5140760;27;20041;-66
2024/01/24 11:16:27;;;;;;;27.95;4.60;;;13.20;1.00;;;;;;5140542;27;20298;-58
2024/01/24 11:18:57;;;;;;;27.98;4.45;;;13.30;1.00;;;;;;5140610;27;20023;-63
2024/01/24 11:21:22;;;;;;;27.67;5.00;;;13.30;1.00;;;;;;5140500;27;20097;-63
2024/01/24 11:23:49;;;;;;;34.00;5.05;;;13.20;1.00;;;;;;5140700;27;20047;-61
2024/01/24 11:26:18;;;;;;;25.17;4.55;;;13.00;1.00;;;;;;5122906;27;20043;-65
2024/01/24 11:28:48;;;;;;;28.35;4.82;;;13.10;1.00;;;;;;5140271;27;20046;-64
2024/01/24 11:31:14;;;;;;;25.42;4.45;;;13.30;1.00;;;;;;5140376;27;20069;-64
2024/01/24 11:34:06;;;;;;;25.67;4.20;;;13.40;1.00;;;;;;5140242;27;20332;-60
2024/01/24 11:36:31;;;;;;;23.80;4.60;;;13.40;1.00;;;;;;5140082;27;20038;-60
2024/01/24 11:38:57;;;;;;;22.80;4.20;;;13.50;1.00;;;;;;5139941;27;20134;-65
2024/01/24 11:41:27;;;;;;;28.00;4.25;;;13.60;1.00;;;;;;5139952;27;20027;-63
2024/01/24 11:43:53;;;;;;;20.20;3.55;;;13.70;1.00;;;;;;5140026;27;20032;-60
2024/01/24 11:46:21;;;;;;;20.40;4.20;;;13.60;1.00;;;;;;5139939;27;20031;-58
2024/01/24 11:48:47;;;;;;;22.52;4.10;;;13.60;1.00;;;;;;5122257;27;20398;-61
2024/01/24 11:51:14;;;;;;;26.00;4.38;;;13.70;1.00;;;;;;5139852;27;20080;-60
2024/01/24 11:53:39;;;;;;;24.25;3.78;;;13.80;1.00;;;;;;5139703;27;20284;-60
2024/01/24 11:56:07;;;;;;;20.85;3.80;;;13.70;1.00;;;;;;5105086;27;20045;-65
2024/01/24 11:58:33;;;;;;;20.88;3.92;;;13.60;1.00;;;;;;5139682;27;20035;-64
2024/01/24 12:01:07;;;;;;;25.45;3.92;;;13.60;1.00;;;;;;5139599;27;20097;-58
2024/01/24 12:03:34;;;;;;;25.13;3.78;;;13.60;1.00;;;;;;5139700;27;20042;-65
2024/01/24 12:06:01;;;;;;;24.00;3.88;;;13.70;1.00;;;;;;5139710;27;20031;-59
2024/01/24 12:08:27;;;;;;;22.10;3.83;;;13.80;1.00;;;;;;5139452;27;20080;-60
2024/01/24 12:10:53;;;;;;;24.23;3.83;;;13.80;1.00;;;;;;5121981;27;20058;-69
2024/01/24 12:13:22;;;;;;;23.98;4.00;;;13.90;1.00;;;;;;5121669;27;20038;-67
2024/01/24 12:15:48;;;;;;;24.42;3.63;;;14.00;1.00;;;;;;5139557;27;20058;-58
2024/01/24 12:18:18;;;;;;;21.90;3.60;;;13.90;1.00;;;;;;5138193;27;20352;-64
2024/01/24 12:20:52;;;;;;;15.07;3.30;;;13.80;1.00;;;;;;5139456;27;20033;-61
2024/01/24 12:23:19;;;;;;;18.90;3.78;;;13.50;1.00;;;;;;5139323;27;20039;-60
2024/01/24 12:25:45;;;;;;;17.05;3.10;;;13.30;1.00;;;;;;5139158;27;20416;-61
2024/01/24 12:28:11;;;;;;;22.80;3.70;;;13.30;1.00;;;;;;5139082;27;20038;-60
2024/01/24 12:30:38;;;;;;;23.63;3.90;;;13.40;1.00;;;;;;5138999;27;20059;-60
2024/01/24 12:33:04;;;;;;;17.48;3.35;;;13.20;1.00;;;;;;5139163;27;20019;-61
2024/01/24 12:35:31;;;;;;;25.02;4.30;;;13.30;1.00;;;;;;5139163;27;20048;-64
2024/01/24 12:38:02;;;;;;;20.10;3.35;;;13.50;1.00;;;;;;5104295;27;20073;-58